createdAt,value
2024-02-01T00:00:54.505Z,1.80
2024-02-01T00:05:56.892Z,1.60
2024-02-01T00:11:00.738Z,1.60
2024-02-01T00:16:02.823Z,1.30
2024-02-01T00:21:05.006Z,1.40
2024-02-01T00:26:08.495Z,1.30
2024-02-01T00:31:10.708Z,1.40
2024-02-01T00:36:13.165Z,1.60
2024-02-01T00:41:16.524Z,1.60
2024-02-01T00:46:18.881Z,2.40
2024-02-01T00:51:21.285Z,2.50
2024-02-01T00:56:24.681Z,2.40
2024-02-01T01:01:26.975Z,2.20
2024-02-01T01:06:29.602Z,2.10
2024-02-01T01:11:34.035Z,1.80
2024-02-01T01:16:36.802Z,1.60
2024-02-01T01:21:39.110Z,1.50
2024-02-01T01:26:42.653Z,2.20
2024-02-01T01:31:44.827Z,2.60
2024-02-01T01:36:46.724Z,2.30
2024-02-01T01:41:50.294Z,2.00
2024-02-01T01:46:53.446Z,2.00
2024-02-01T01:51:57.404Z,1.90
2024-02-01T01:57:01.971Z,1.90
2024-02-01T02:02:05.323Z,2.00
2024-02-01T02:07:07.550Z,1.90
2024-02-01T02:12:12.105Z,2.00
2024-02-01T02:17:14.482Z,2.10
2024-02-01T02:22:18.096Z,2.10
2024-02-01T02:27:21.701Z,2.20
2024-02-01T02:32:24.554Z,2.20
2024-02-01T02:37:28.122Z,2.30
2024-02-01T02:42:30.658Z,2.40
2024-02-01T02:47:33.050Z,2.50
2024-02-01T02:52:39.787Z,2.60
2024-02-01T02:57:41.948Z,2.60
2024-02-01T03:02:44.100Z,2.60
2024-02-01T03:07:47.598Z,2.60
2024-02-01T03:12:49.962Z,2.70
2024-02-01T03:17:52.100Z,2.60
2024-02-01T03:22:56.781Z,2.50
2024-02-01T03:28:02.599Z,2.60
2024-02-01T03:33:05.765Z,2.60
2024-02-01T03:38:09.821Z,2.70
2024-02-01T03:43:13.499Z,2.80
2024-02-01T03:48:15.852Z,2.90
2024-02-01T03:53:20.031Z,3.00
2024-02-01T03:58:22.777Z,2.90
2024-02-01T04:03:25.018Z,3.00
2024-02-01T04:08:28.768Z,3.10
2024-02-01T04:13:30.924Z,3.20
2024-02-01T04:18:33.286Z,3.20
2024-02-01T04:23:36.940Z,3.20
2024-02-01T04:28:38.991Z,3.20
2024-02-01T04:33:42.817Z,3.30
2024-02-01T04:38:46.395Z,3.60
2024-02-01T04:43:49.147Z,4.20
2024-02-01T04:48:51.282Z,4.30
2024-02-01T04:53:54.889Z,4.40
2024-02-01T04:58:57.982Z,4.50
2024-02-01T05:04:00.442Z,4.50
2024-02-01T05:09:03.980Z,4.50
2024-02-01T05:14:12.156Z,4.80
2024-02-01T05:19:15.856Z,4.90
2024-02-01T05:24:19.594Z,4.70
2024-02-01T05:29:22.550Z,4.60
2024-02-01T05:34:25.438Z,4.40
2024-02-01T05:39:29.578Z,4.20
2024-02-01T05:44:32.406Z,4.20
2024-02-01T05:49:35.237Z,4.30
2024-02-01T05:54:38.756Z,4.50
2024-02-01T05:59:40.736Z,4.70
2024-02-01T06:04:44.700Z,4.90
2024-02-01T06:09:48.659Z,4.80
2024-02-01T06:14:50.654Z,4.80
2024-02-01T06:19:52.979Z,5.00
2024-02-01T06:24:56.030Z,5.00
2024-02-01T06:30:00.273Z,4.90
2024-02-01T06:35:08.090Z,4.80
2024-02-01T06:40:28.235Z,4.80
2024-02-01T06:45:31.293Z,4.70
2024-02-01T06:50:47.670Z,4.40
2024-02-01T06:56:01.349Z,5.10
2024-02-01T07:01:15.334Z,6.70
2024-02-01T07:06:46.337Z,6.10
2024-02-01T07:12:11.379Z,5.30
2024-02-01T07:17:29.591Z,4.80
2024-02-01T07:22:41.261Z,4.80
2024-02-01T07:28:02.160Z,4.80
2024-02-01T07:33:21.530Z,4.90
2024-02-01T07:38:41.179Z,4.80
2024-02-01T07:44:02.195Z,4.80
2024-02-01T07:49:22.453Z,4.90
2024-02-01T07:54:42.016Z,5.00
2024-02-01T07:59:49.324Z,5.00
2024-02-01T08:05:09.014Z,5.00
2024-02-01T08:10:11.015Z,5.00
2024-02-01T08:15:20.219Z,5.00
2024-02-01T08:20:23.085Z,4.90
2024-02-01T08:25:25.594Z,4.90
2024-02-01T08:30:33.047Z,4.90
2024-02-01T08:35:36.108Z,4.80
2024-02-01T08:40:41.439Z,4.90
2024-02-01T08:45:46.490Z,4.90
2024-02-01T08:50:49.998Z,4.90
2024-02-01T08:55:54.018Z,4.90
2024-02-01T09:00:57.674Z,4.80
2024-02-01T09:06:10.774Z,4.80
2024-02-01T09:11:15.479Z,4.80
2024-02-01T09:16:25.630Z,4.90
2024-02-01T09:21:28.765Z,4.90
2024-02-01T09:26:30.833Z,4.80
2024-02-01T09:31:34.772Z,4.80
2024-02-01T09:36:37.308Z,4.60
2024-02-01T09:41:39.874Z,4.70
2024-02-01T09:46:43.645Z,4.60
2024-02-01T09:51:48.374Z,4.60
2024-02-01T09:56:52.312Z,4.90
2024-02-01T10:01:57.368Z,5.10
2024-02-01T10:07:00.029Z,5.50
2024-02-01T10:12:02.091Z,5.50
2024-02-01T10:17:07.657Z,5.60
2024-02-01T10:22:12.399Z,6.60
2024-02-01T10:27:16.071Z,5.80
2024-02-01T10:32:20.156Z,5.60
2024-02-01T10:37:23.335Z,5.90
2024-02-01T10:42:31.691Z,7.20
2024-02-01T10:47:40.229Z,7.20
2024-02-01T10:52:44.639Z,6.50
2024-02-01T10:57:47.172Z,5.80
2024-02-01T11:02:54.283Z,5.70
2024-02-01T11:07:56.359Z,5.60
2024-02-01T11:12:58.511Z,5.80
2024-02-01T11:18:12.796Z,5.80
2024-02-01T11:23:18.026Z,5.80
2024-02-01T11:28:32.072Z,5.70
2024-02-01T11:33:39.748Z,5.50
2024-02-01T11:38:42.707Z,5.60
2024-02-01T11:43:45.017Z,5.70
2024-02-01T11:48:49.335Z,5.80
2024-02-01T11:53:54.097Z,5.80
2024-02-01T11:58:59.956Z,5.80
2024-02-01T12:04:03.532Z,5.80
2024-02-01T12:09:08.558Z,5.80
2024-02-01T12:14:12.979Z,5.70
2024-02-01T12:19:20.073Z,5.90
2024-02-01T12:24:27.207Z,5.90
2024-02-01T12:29:30.509Z,5.70
2024-02-01T12:34:39.172Z,5.70
2024-02-01T12:39:42.910Z,5.60
2024-02-01T12:44:45.616Z,5.60
2024-02-01T12:49:49.333Z,5.60
2024-02-01T12:54:51.414Z,5.70
2024-02-01T12:59:54.409Z,5.70
2024-02-01T13:04:57.758Z,5.80
2024-02-01T13:10:06.715Z,5.80
2024-02-01T13:15:10.232Z,5.80
2024-02-01T13:20:21.359Z,5.80
2024-02-01T13:25:24.165Z,5.70
2024-02-01T13:30:28.363Z,5.60
2024-02-01T13:35:33.424Z,5.40
2024-02-01T13:40:35.564Z,5.40
2024-02-01T13:45:39.062Z,5.40
2024-02-01T13:50:42.515Z,5.40
2024-02-01T13:55:44.669Z,5.50
2024-02-01T14:00:55.668Z,5.50
2024-02-01T14:06:02.585Z,5.50
2024-02-01T14:11:05.519Z,5.60
2024-02-01T14:16:08.925Z,5.60
2024-02-01T14:21:12.492Z,5.60
2024-02-01T14:26:14.655Z,5.60
2024-02-01T14:31:16.883Z,5.70
2024-02-01T14:36:20.859Z,5.70
2024-02-01T14:41:24.203Z,5.70
2024-02-01T14:46:26.934Z,5.60
2024-02-01T14:51:30.554Z,5.60
2024-02-01T14:56:32.523Z,5.60
2024-02-01T15:01:34.527Z,5.70
2024-02-01T15:06:39.462Z,5.70
2024-02-01T15:11:41.802Z,5.60
2024-02-01T15:16:44.230Z,5.70
2024-02-01T15:21:48.636Z,5.80
2024-02-01T15:26:53.060Z,5.90
2024-02-01T15:31:55.584Z,5.90
2024-02-01T15:37:00.882Z,5.90
2024-02-01T15:42:03.460Z,5.80
2024-02-01T15:47:06.307Z,5.90
2024-02-01T15:52:12.010Z,5.80
2024-02-01T15:57:14.650Z,5.70
2024-02-01T16:02:17.131Z,5.70
2024-02-01T16:07:21.316Z,5.70
2024-02-01T16:12:23.507Z,5.70
2024-02-01T16:17:26.827Z,5.60
2024-02-01T16:22:47.326Z,5.70
2024-02-01T16:28:09.315Z,5.70
2024-02-01T16:33:21.296Z,5.70
2024-02-01T16:38:33.712Z,5.70
2024-02-01T16:43:38.661Z,5.70
2024-02-01T16:48:41.093Z,5.70
2024-02-01T16:53:46.556Z,5.70
2024-02-01T16:58:55.624Z,5.70
2024-02-01T17:04:01.293Z,5.80
2024-02-01T17:09:08.013Z,5.80
2024-02-01T17:14:19.672Z,5.80
2024-02-01T17:19:22.701Z,5.80
2024-02-01T17:24:30.021Z,5.70
2024-02-01T17:29:33.364Z,5.70
2024-02-01T17:34:38.730Z,5.60
2024-02-01T17:39:52.701Z,5.70
2024-02-01T17:44:57.798Z,5.70
2024-02-01T17:50:01.660Z,5.70
2024-02-01T17:55:22.470Z,5.70
2024-02-01T18:00:28.563Z,5.70
2024-02-01T18:05:35.512Z,5.70
2024-02-01T18:10:40.077Z,5.70
2024-02-01T18:16:03.482Z,5.70
2024-02-01T18:21:07.279Z,5.70
2024-02-01T18:26:13.259Z,5.70
2024-02-01T18:31:16.766Z,5.70
2024-02-01T18:36:23.668Z,5.70
2024-02-01T18:41:31.498Z,5.70
2024-02-01T18:46:48.083Z,5.70
2024-02-01T18:51:59.121Z,5.70
2024-02-01T18:57:05.116Z,5.70
2024-02-01T19:02:25.002Z,5.70
2024-02-01T19:07:28.016Z,5.70
2024-02-01T19:12:49.404Z,5.90
2024-02-01T19:17:53.799Z,5.70
2024-02-01T19:22:58.035Z,5.70
2024-02-01T19:28:04.001Z,5.70
2024-02-01T19:33:07.955Z,5.70
2024-02-01T19:38:15.036Z,5.70
2024-02-01T19:43:20.783Z,5.60
2024-02-01T19:48:24.595Z,5.60
2024-02-01T19:53:29.951Z,5.60
2024-02-01T19:58:36.095Z,5.60
2024-02-01T20:03:38.903Z,5.70
2024-02-01T20:08:46.073Z,5.60
2024-02-01T20:13:52.346Z,5.60
2024-02-01T20:18:56.086Z,5.60
2024-02-01T20:24:05.925Z,5.60
2024-02-01T20:29:13.614Z,5.60
2024-02-01T20:34:29.718Z,5.60
2024-02-01T20:39:39.986Z,5.60
2024-02-01T20:44:44.873Z,5.60
2024-02-01T20:49:47.445Z,5.60
2024-02-01T20:55:10.492Z,5.60
2024-02-01T21:00:21.831Z,5.70
2024-02-01T21:05:44.470Z,5.60
2024-02-01T21:10:50.964Z,5.60
2024-02-01T21:15:56.378Z,5.60
2024-02-01T21:21:06.354Z,5.60
2024-02-01T21:26:27.190Z,5.50
2024-02-01T21:31:51.132Z,5.50
2024-02-01T21:37:01.312Z,5.50
2024-02-01T21:42:05.034Z,5.50
2024-02-01T21:47:14.709Z,5.50
2024-02-01T21:52:18.438Z,5.50
2024-02-01T21:57:21.868Z,5.50
2024-02-01T22:02:25.821Z,5.40
2024-02-01T22:07:28.880Z,5.50
2024-02-01T22:12:31.500Z,5.50
2024-02-01T22:17:36.419Z,5.50
2024-02-01T22:22:41.230Z,5.50
2024-02-01T22:27:44.389Z,5.50
2024-02-01T22:32:50.182Z,5.40
2024-02-01T22:37:52.734Z,5.50
2024-02-01T22:42:55.154Z,5.60
2024-02-01T22:48:00.710Z,5.50
2024-02-01T22:53:03.731Z,5.40
2024-02-01T22:58:08.834Z,5.40
2024-02-01T23:03:13.322Z,5.40
2024-02-01T23:08:15.996Z,5.40
2024-02-01T23:13:19.157Z,5.40
2024-02-01T23:18:22.793Z,5.40
2024-02-01T23:23:25.577Z,5.40
2024-02-01T23:28:27.949Z,5.50
2024-02-01T23:33:36.370Z,5.40
2024-02-01T23:38:38.463Z,5.30
2024-02-01T23:43:40.511Z,5.30
2024-02-01T23:48:44.192Z,5.30
2024-02-01T23:53:46.289Z,5.40
2024-02-01T23:58:48.791Z,5.40
